LATILDSP

Guest
Details From LATI - Tirana Rinas
To LDSP - SPLIT
Flight Number -
Tags generated
Created
Modified
Stats Distance 199 nm / 369 km
Max Altitude 22,500 ft / 6,858 m
Waypoints 3
Social Downloads 1
Likes 0
Share VATSIM

Download

Looking for another format? Having issues loading an existing format? Contact us
Advertisement - Login to hide

Notes

Basic altitude profile: - Ascent Rate: 2500ft/min - Ascent Speed: 250kts - Cruise Altitude: 35000ft - Cruise Speed: 420kts - Descent Rate: 1500ft/min - Descent Speed: 250kts Options: - Use NATs: yes - Use PACOTS: yes - Use low airways: no - Use high airways: yes

Route

LATI DBK LDSP

ID Type Via Altitude Latitude Longitude Leg Dist Tot Dist Heading (true) Name
O LATI APT - 0 ft / 0 m 41.41473˚ 19.72057˚ - 0 nm - Tirana Rinas
DBK VOR - 22,500 ft / 6,858 m 42.55384˚ 18.27743˚ 93 nm 93 nm 317° / 316° DUBROVNIK VOR-DME
O LDSP APT - 0 ft / 0 m 43.53903˚ 16.29811˚ 105 nm 199 nm 305° / 304° SPLIT

Altitude Profile

Advertisement - Login to hide

Weather


0- 5 10 15 20 25 30 35+ Temperature / ° C

Clouds and Precipitation
Forecast for 2017-12-16 12:00 UTC. Updated 16 minutes ago

Ground ~20,000 ft ~40,000 ft Winds

LATI

Details ICAO LATI (TIA)
Name Tirana Rinas
Region Albania
Timezone Europe/Tirane (UTC+1.0)
Stats Elevation 126 ft / 38 m (AMSL)
Location 41.414732° 19.720569°
Runways 1
Magnetic Variation 4.233° E

METAR

LATI 160720Z 19022G33KT 9999 BKN080 OVC130 17/07 Q1006 NOSIG

Decode

TAF

TAF LATI 160500Z 1606/1706 14012KT 9999 -RA FEW040 SCT060 BKN080 TEMPO 1608/1618 5000 RA BKN030 OVC050 PROB40 TEMPO 1609/1617 18012G25KT 3000 TSRA SCT015CB

Decode

Departure Runways

ID Width Length Bearing (true) Bearing (mag) Surface Threshold Offset Overrun Length
18 148 ft / 45 m 8,984 ft / 2,738 m 174.31° 170.08° Asphalt 500 ft / 152 m 0 ft / 0 m
36 148 ft / 45 m 8,984 ft / 2,738 m 354.31° 350.08° Asphalt 500 ft / 152 m 0 ft / 0 m

LDSP

Details ICAO LDSP (SPU)
Name SPLIT
Region Croatia
Timezone Europe/Zagreb (UTC+1.0)
Stats Elevation 79 ft / 24 m (AMSL)
Location 43.539026° 16.298112°
Runways 1
Magnetic Variation 3.837° E

METAR

LDSP 160730Z 30005KT 270V340 9999 SCT030 SCT055 08/04 Q1004 NOSIG

Decode

TAF

TAF LDSP 160525Z 1606/1706 30009KT 9999 SCT035 TX11/1612Z TN07/1705Z PROB30 TEMPO 1606/1608 23008KT BECMG 1620/1622 04008KT PROB30 TEMPO 1621/1700 SHRA FEW030TCU SCT035 BECMG 1702/1704 04014KT TEMPO 1704/1706 04018G28KT

Decode

Destination Runways

ID Width Length Bearing (true) Bearing (mag) Surface Threshold Offset Overrun Length
05 148 ft / 45 m 8,357 ft / 2,547 m 52.48° 48.64° Asphalt 0 ft / 0 m 76 ft / 23 m
23 148 ft / 45 m 8,357 ft / 2,547 m 232.50° 228.66° Asphalt 525 ft / 160 m 820 ft / 250 m

Approach Navaids

Runway Type Ident Frequency Range Bearing (true) Bearing (mag) Slope Elevation
05 Localiser IST 110.50 MHz 25 nm / 46 km 52.57° 48.73° - 69 ft / 21 m (AMSL)
05 Glidescope IST 110.50 MHz 25 nm / 46 km 52.57° 48.73° 3.00° 52 ft / 16 m (AMSL)

Popular Alternatives